Time;durP1;ratioP1;P1;durP2;ratioP2;P2;SDS_P1;SDS_P2;PMS_P1;PMS_P2;Temp;Humidity;BMP_temperature;BMP_pressure;BME280_temperature;BME280_humidity;BME280_pressure;Samples;Min_cycle;Max_cycle;Signal;HPM_P1;HPM_P2
2022/04/28 00:00:20;;;;;;;;;24.00;23.25;;;;;14.39;86.15;102004.75;6131529;23;45472;-94
2022/04/28 00:03:14;;;;;;;;;;;;;;;;;;;;;
2022/04/28 00:06:38;;;;;;;;;17.00;16.25;;;;;14.24;86.43;101986.41;6187601;23;75648;-93
2022/04/28 00:09:14;;;;;;;;;22.50;19.75;;;;;14.15;86.49;101969.25;6164319;23;45288;-93
2022/04/28 00:12:33;;;;;;;;;;;;;;;;;;;;;
2022/04/28 00:15:22;;;;;;;;;23.75;21.00;;;;;14.25;87.12;102009.34;6149909;23;69909;-96
2022/04/28 00:29:20;;;;;;;;;20.00;19.00;;;;;14.01;87.44;101978.22;6287929;22;46236;-96
2022/04/28 00:32:22;;;;;;;;;24.25;20.50;;;;;14.05;87.54;101996.03;6172645;22;45559;-96
2022/04/28 00:35:20;;;;;;;;;28.50;23.00;;;;;14.01;87.39;101986.16;6171885;22;45302;-96
2022/04/28 00:38:27;;;;;;;;;25.75;23.75;;;;;13.84;87.88;101957.13;6148095;22;45436;-96
2022/04/28 00:41:26;;;;;;;;;;;;;;;;;;;;;
2022/04/28 00:44:30;;;;;;;;;17.25;14.25;;;;;13.76;88.14;101964.66;6175871;23;70877;-96
2022/04/28 00:47:22;;;;;;;;;26.00;18.00;;;;;13.72;88.34;101960.06;6162687;23;45462;-96
2022/04/28 00:53:19;;;;;;;;;21.50;20.25;;;;;13.81;88.27;101988.66;6176502;23;45815;-96
2022/04/28 00:56:37;;;;;;;;;22.50;20.75;;;;;13.71;88.35;101971.47;6184456;22;45421;-96
2022/04/28 01:02:51;;;;;;;;;;;;;;;;;;;;;
2022/04/28 01:05:00;;;;;;;;;24.75;19.25;;;;;13.59;88.85;101966.41;6195254;22;46159;-94
2022/04/28 01:08:01;;;;;;;;;27.75;21.50;;;;;13.55;88.98;101954.78;6184188;22;45518;-96
2022/04/28 01:14:13;;;;;;;;;20.75;18.50;;;;;13.59;89.26;101972.59;6059486;23;45444;-94
2022/04/28 01:24:20;;;;;;;;;24.75;21.75;;;;;13.36;89.40;101956.44;5974036;23;45329;-94
2022/04/28 01:27:33;;;;;;;;;24.75;20.75;;;;;13.27;90.03;101937.50;5998369;23;45433;-95
2022/04/28 01:30:33;;;;;;;;;;;;;;;;;;;;;
2022/04/28 01:40:11;;;;;;;;;22.75;20.00;;;;;13.18;90.51;101937.91;6062934;23;45194;-96
2022/04/28 01:43:02;;;;;;;;;18.75;15.00;;;;;13.09;90.94;101930.38;6030239;23;46959;-94
2022/04/28 01:46:24;;;;;;;;;18.75;14.75;;;;;13.08;90.81;101944.41;6032169;23;45281;-96
2022/04/28 01:54:57;;;;;;;;;28.00;17.50;;;;;13.02;90.99;101934.44;5926982;23;45626;-96
2022/04/28 02:00:00;;;;;;;;;22.75;19.25;;;;;12.99;91.35;101944.78;6093820;23;45448;-96
2022/04/28 02:03:09;;;;;;;;;23.25;19.50;;;;;13.02;91.61;101951.97;6173627;23;45280;-96
2022/04/28 02:05:55;;;;;;;;;19.75;17.75;;;;;12.89;91.78;101934.56;6126025;23;45630;-96
2022/04/28 02:08:36;;;;;;;;;17.25;15.25;;;;;12.87;91.62;101934.50;6148466;23;47133;-96
2022/04/28 02:14:07;;;;;;;;;20.75;16.00;;;;;12.83;92.25;101936.03;6094163;23;45340;-96
2022/04/28 02:17:09;;;;;;;;;22.00;16.50;;;;;12.81;92.25;101935.06;6057551;23;45660;-96
2022/04/28 02:20:13;;;;;;;;;18.00;17.25;;;;;12.87;92.32;101955.59;6056104;23;47417;-96
2022/04/28 02:22:58;;;;;;;;;20.00;16.50;;;;;12.85;92.33;101962.50;6031713;23;45426;-96
2022/04/28 02:26:08;;;;;;;;;;;;;;;;;;;;;
2022/04/28 02:31:32;;;;;;;;;18.75;17.00;;;;;12.67;93.09;101936.03;6187899;22;45647;-96
2022/04/28 02:34:16;;;;;;;;;20.25;18.00;;;;;12.71;92.92;101946.81;6155210;22;45421;-96
2022/04/28 02:36:54;;;;;;;;;22.25;17.50;;;;;12.64;92.83;101942.03;6113036;23;45589;-96
2022/04/28 02:39:26;;;;;;;;;19.50;17.75;;;;;12.74;93.33;101960.16;6113935;23;45271;-96
2022/04/28 02:41:54;;;;;;;;;23.00;17.50;;;;;12.68;93.30;101953.66;6218494;22;47170;-96
2022/04/28 02:44:44;;;;;;;;;24.25;17.75;;;;;12.56;93.23;101949.50;6088953;23;45617;-95
2022/04/28 02:47:10;;;;;;;;;14.75;12.00;;;;;12.47;93.64;101944.59;6090731;23;45707;-96
2022/04/28 02:49:46;;;;;;;;;21.25;14.00;;;;;12.46;93.91;101950.72;6091761;22;45434;-96
2022/04/28 02:52:13;;;;;;;;;23.50;17.00;;;;;12.48;93.99;101953.41;6090293;23;47109;-96
2022/04/28 02:57:56;;;;;;;;;12.00;12.00;;;;;12.31;94.56;101939.28;6103707;23;45472;-95
2022/04/28 03:00:27;;;;;;;;;17.00;17.00;;;;;12.22;94.51;101932.69;6228335;22;45588;-94
2022/04/28 03:02:56;;;;;;;;;20.50;17.75;;;;;12.24;94.40;101949.47;6176540;23;48045;-96
2022/04/28 03:05:36;;;;;;;;;19.25;17.50;;;;;12.22;95.06;101944.91;6151916;23;45207;-96
2022/04/28 03:11:01;;;;;;;;;26.50;20.50;;;;;12.27;94.85;101961.91;6178244;23;45235;-95
2022/04/28 03:13:40;;;;;;;;;23.00;17.00;;;;;12.13;94.68;101943.59;6151379;22;48013;-96
2022/04/28 03:16:08;;;;;;;;;18.00;16.50;;;;;12.14;95.07;101944.47;6180072;22;45474;-95
2022/04/28 03:19:01;;;;;;;;;17.75;16.00;;;;;12.23;95.37;101963.47;6151767;23;45357;-96
2022/04/28 03:21:27;;;;;;;;;14.00;11.25;;;;;12.11;95.62;101942.53;6152903;22;45479;-96
2022/04/28 03:23:53;;;;;;;;;25.50;19.25;;;;;12.20;95.57;101965.00;6177137;22;47807;-96
2022/04/28 03:26:39;;;;;;;;;23.00;20.75;;;;;12.10;95.88;101946.00;6151617;23;45435;-96
2022/04/28 03:29:05;;;;;;;;;21.00;17.25;;;;;12.01;95.96;101935.84;6251859;22;45257;-96
2022/04/28 03:31:31;;;;;;;;;20.00;14.75;;;;;12.10;95.95;101956.53;6304977;22;45194;-96
2022/04/28 03:34:10;;;;;;;;;20.75;16.50;;;;;12.03;95.93;101955.28;6303862;22;47026;-96
2022/04/28 03:36:51;;;;;;;;;16.75;16.75;;;;;11.94;95.96;101937.22;6303837;22;45449;-96
2022/04/28 03:39:25;;;;;;;;;20.00;18.25;;;;;11.92;96.43;101941.47;6302046;22;45448;-96
2022/04/28 03:42:34;;;;;;;;;24.00;20.00;;;;;11.87;96.16;101944.66;6303622;22;45407;-96
2022/04/28 03:45:06;;;;;;;;;16.00;15.00;;;;;11.90;96.46;101951.00;6303763;22;46969;-96
2022/04/28 03:47:43;;;;;;;;;19.75;16.25;;;;;11.96;96.15;101963.59;6303940;22;45636;-95
2022/04/28 03:50:09;;;;;;;;;18.75;16.00;;;;;11.82;96.54;101939.13;6304274;22;45701;-96
2022/04/28 03:52:35;;;;;;;;;17.50;15.50;;;;;11.84;96.91;101937.47;6304803;22;45193;-96
2022/04/28 03:55:06;;;;;;;;;18.50;16.50;;;;;11.77;96.71;101932.69;6302573;22;46812;-96
2022/04/28 03:57:32;;;;;;;;;23.75;19.50;;;;;11.75;96.81;101937.81;6328217;22;45213;-96
2022/04/28 04:00:00;;;;;;;;;21.00;17.00;;;;;11.90;97.23;101960.63;6331999;22;44750;-94
2022/04/28 04:02:25;;;;;;;;;26.25;20.00;;;;;11.83;97.33;101956.69;6331832;22;44780;-96
2022/04/28 04:04:56;;;;;;;;;21.00;18.75;;;;;11.86;97.42;101967.41;6330063;22;47328;-96
2022/04/28 04:07:43;;;;;;;;;;;;;;;;;;;;;
2022/04/28 04:10:13;;;;;;;;;21.00;19.00;;;;;11.68;97.81;101935.66;6305186;22;68514;-95
2022/04/28 04:12:42;;;;;;;;;20.75;18.25;;;;;11.64;97.82;101942.47;6302917;22;45330;-96
2022/04/28 04:15:08;;;;;;;;;21.25;19.00;;;;;11.59;97.65;101943.91;6303691;22;46933;-96
2022/04/28 04:17:45;;;;;;;;;23.50;20.00;;;;;11.65;98.27;101951.28;6304580;22;45297;-95
2022/04/28 04:20:14;;;;;;;;;24.50;21.00;;;;;11.57;98.37;101943.78;6305195;22;45372;-96
2022/04/28 04:22:40;;;;;;;;;22.00;17.50;;;;;11.54;98.56;101937.47;6304974;22;45559;-96
2022/04/28 04:25:06;;;;;;;;;23.00;20.00;;;;;11.48;99.13;101938.91;6303534;22;46957;-95
2022/04/28 04:27:34;;;;;;;;;17.00;16.00;;;;;11.53;99.12;101952.31;6302157;22;45353;-96
2022/04/28 04:30:00;;;;;;;;;18.00;14.50;;;;;11.47;99.31;101951.94;6151216;23;45752;-94
2022/04/28 04:32:26;;;;;;;;;29.75;23.25;;;;;11.42;99.64;101950.75;6150842;23;45571;-95
2022/04/28 04:34:54;;;;;;;;;27.00;24.00;;;;;11.50;99.74;101970.53;6154528;23;47032;-96
2022/04/28 04:37:21;;;;;;;;;22.00;19.50;;;;;11.42;99.88;101959.53;6179403;22;45209;-94
2022/04/28 04:39:48;;;;;;;;;22.00;18.25;;;;;11.33;100.00;101948.47;6150187;22;45262;-96
2022/04/28 04:42:16;;;;;;;;;22.25;17.75;;;;;11.39;100.00;101962.00;6150552;23;45294;-95
2022/04/28 04:44:44;;;;;;;;;15.50;14.50;;;;;11.35;99.80;101963.53;6150505;23;48031;-95
2022/04/28 04:47:09;;;;;;;;;27.50;22.25;;;;;11.25;100.00;101937.50;6150908;23;45403;-94
2022/04/28 04:49:35;;;;;;;;;17.00;15.75;;;;;11.25;100.00;101950.63;6150721;23;45532;-95
2022/04/28 04:52:02;;;;;;;;;19.25;17.75;;;;;11.28;100.00;101940.31;6149749;23;45315;-96
2022/04/28 04:54:27;;;;;;;;;22.25;19.00;;;;;11.22;100.00;101939.91;6152478;22;47232;-95
2022/04/28 04:56:56;;;;;;;;;24.75;21.50;;;;;11.24;100.00;101933.94;6154644;22;45362;-95
2022/04/28 04:59:21;;;;;;;;;24.25;20.75;;;;;11.27;100.00;101941.13;6157042;22;45396;-96
2022/04/28 05:01:46;;;;;;;;;23.50;19.50;;;;;11.22;100.00;101940.84;6153926;23;45452;-96
2022/04/28 05:04:12;;;;;;;;;16.25;16.25;;;;;11.23;100.00;101936.50;6153464;23;47051;-95
2022/04/28 05:06:40;;;;;;;;;22.50;20.50;;;;;11.34;100.00;101956.44;6153365;23;45306;-94
2022/04/28 05:09:05;;;;;;;;;22.25;20.25;;;;;11.38;100.00;101955.84;6153934;23;45309;-95
2022/04/28 05:11:30;;;;;;;;;26.25;19.75;;;;;11.35;100.00;101949.47;6154211;22;45192;-95
2022/04/28 05:13:56;;;;;;;;;19.00;16.75;;;;;11.44;100.00;101963.16;6152945;23;48110;-94
2022/04/28 05:16:21;;;;;;;;;25.25;21.75;;;;;11.45;100.00;101958.81;6153791;22;45295;-95
2022/04/28 05:18:47;;;;;;;;;29.50;23.50;;;;;11.56;100.00;101970.00;6153091;22;45459;-95
2022/04/28 05:21:12;;;;;;;;;30.50;22.50;;;;;11.68;100.00;101977.72;6152388;23;45250;-95
2022/04/28 05:23:37;;;;;;;;;25.25;18.75;;;;;11.73;100.00;101977.19;6175716;23;48207;-95
2022/04/28 05:26:03;;;;;;;;;27.50;21.75;;;;;11.83;100.00;101977.75;6150463;23;45641;-95
2022/04/28 05:28:31;;;;;;;;;29.25;24.25;;;;;11.87;100.00;101985.03;6189952;22;45293;-96
2022/04/28 05:30:57;;;;;;;;;23.00;20.75;;;;;12.02;100.00;101995.56;6282672;22;45480;-95
2022/04/28 05:33:23;;;;;;;;;21.75;21.50;;;;;12.01;100.00;101982.31;6281877;22;46776;-96
2022/04/28 05:35:52;;;;;;;;;26.75;21.50;;;;;12.11;100.00;101994.28;6282884;22;45312;-95
2022/04/28 05:38:20;;;;;;;;;24.00;22.75;;;;;12.18;100.00;101988.59;6282118;22;45375;-95
2022/04/28 05:40:46;;;;;;;;;33.75;23.75;;;;;12.24;100.00;101986.31;6282766;22;45407;-96
2022/04/28 05:45:59;;;;;;;;;23.50;21.50;;;;;12.56;100.00;102009.16;6177102;23;45403;-96
2022/04/28 05:48:27;;;;;;;;;29.00;22.25;;;;;12.56;100.00;102006.53;6282411;22;45440;-96
2022/04/28 05:50:53;;;;;;;;;27.25;22.75;;;;;12.69;100.00;102021.31;6283800;22;45226;-96
2022/04/28 05:53:21;;;;;;;;;30.50;20.75;;;;;12.72;100.00;102011.88;6281491;22;46693;-96
2022/04/28 05:55:49;;;;;;;;;22.00;17.50;;;;;12.74;100.00;102012.88;6283521;22;45399;-96
2022/04/28 05:58:57;;;;;;;;;21.75;17.75;;;;;12.87;100.00;102034.63;6285744;22;45417;-96
2022/04/28 06:02:06;;;;;;;;;33.25;23.00;;;;;12.82;100.00;102026.47;6281697;22;45116;-95
2022/04/28 06:04:39;;;;;;;;;20.50;19.25;;;;;12.93;100.00;102031.44;6267641;22;47822;-94
2022/04/28 06:07:29;;;;;;;;;;;;;;;;;;;;;
2022/04/28 06:09:55;;;;;;;;;28.25;18.75;;;;;13.07;100.00;102048.03;6176250;23;68935;-96
2022/04/28 06:12:48;;;;;;;;;30.75;23.50;;;;;13.18;100.00;102061.81;6282530;22;45231;-95
2022/04/28 06:15:37;;;;;;;;;32.00;23.75;;;;;13.19;100.00;102040.78;6281642;22;47073;-95
2022/04/28 06:18:02;;;;;;;;;31.75;24.25;;;;;13.25;100.00;102049.88;6268495;22;45663;-95
2022/04/28 06:20:42;;;;;;;;;26.75;23.50;;;;;13.45;100.00;102071.19;6282247;22;45302;-95
2022/04/28 06:23:57;;;;;;;;;25.00;21.00;;;;;13.50;100.00;102056.50;6287208;22;45361;-95
2022/04/28 06:26:22;;;;;;;;;29.50;25.50;;;;;13.68;100.00;102067.19;6183035;22;47663;-88
2022/04/28 06:28:47;;;;;;;;;22.75;22.00;;;;;13.83;100.00;102082.03;6206438;22;45484;-89
2022/04/28 06:31:12;;;;;;;;;31.25;26.00;;;;;13.96;100.00;102081.84;6207226;22;45365;-89
2022/04/28 06:33:41;;;;;;;;;30.75;23.75;;;;;14.22;100.00;102088.41;6206323;22;45302;-90
2022/04/28 06:36:07;;;;;;;;;29.50;23.25;;;;;14.29;100.00;102091.47;6209541;22;46165;-90
2022/04/28 06:38:32;;;;;;;;;24.25;24.25;;;;;14.35;100.00;102089.97;6208518;22;45436;-88
2022/04/28 06:40:57;;;;;;;;;28.00;22.00;;;;;14.38;99.46;102098.03;6208829;22;45141;-88
2022/04/28 06:43:23;;;;;;;;;28.00;25.75;;;;;14.41;99.10;102104.38;6206082;22;45371;-87
2022/04/28 06:48:32;;;;;;;;;30.00;24.75;;;;;14.42;99.02;102102.66;6206121;22;45311;-87
2022/04/28 06:50:57;;;;;;;;;27.25;23.50;;;;;14.49;99.47;102110.06;6205021;22;45340;-87
2022/04/28 06:53:23;;;;;;;;;27.50;24.00;;;;;14.53;98.97;102111.13;6077977;22;45544;-87
2022/04/28 06:55:48;;;;;;;;;31.00;25.50;;;;;14.58;99.38;102114.91;6201313;22;45417;-87
2022/04/28 06:58:15;;;;;;;;;28.00;23.00;;;;;14.64;98.71;102120.50;6205552;22;45506;-88
2022/04/28 07:00:40;;;;;;;;;33.50;24.25;;;;;14.71;98.99;102127.00;6252566;22;45547;-89
2022/04/28 07:03:05;;;;;;;;;27.75;24.25;;;;;14.77;98.67;102126.38;6277087;22;45394;-88
2022/04/28 07:05:32;;;;;;;;;25.25;20.75;;;;;14.81;98.69;102120.44;6172726;23;45553;-88
2022/04/28 07:07:58;;;;;;;;;28.25;27.00;;;;;14.85;98.79;102113.56;6277144;22;45627;-87
2022/04/28 07:10:23;;;;;;;;;26.75;25.25;;;;;14.93;98.72;102122.81;6172714;23;45625;-87
2022/04/28 07:12:48;;;;;;;;;28.00;25.75;;;;;15.03;98.59;102116.25;6173845;23;47329;-87
2022/04/28 07:15:14;;;;;;;;;30.75;27.00;;;;;15.13;98.25;102125.53;6277904;22;47278;-88
2022/04/28 07:17:39;;;;;;;;;30.25;24.00;;;;;15.21;98.19;102117.97;6274925;22;50333;-88
2022/04/28 07:20:05;;;;;;;;;34.75;28.50;;;;;15.29;98.07;102118.34;6277534;22;45354;-88
2022/04/28 07:22:30;;;;;;;;;31.50;27.75;;;;;15.46;98.09;102131.47;6174301;23;45281;-88
2022/04/28 07:24:55;;;;;;;;;27.75;27.00;;;;;15.57;97.84;102130.22;6283206;22;46981;-88
2022/04/28 07:27:21;;;;;;;;;31.25;28.25;;;;;15.69;97.72;102131.66;6278732;22;45902;-88
2022/04/28 07:29:46;;;;;;;;;31.50;27.50;;;;;15.83;97.44;102135.81;6277859;22;45671;-88
2022/04/28 07:32:12;;;;;;;;;31.00;30.75;;;;;15.96;97.60;102141.69;6275077;22;45574;-88
2022/04/28 07:34:37;;;;;;;;;28.00;23.75;;;;;16.12;97.69;102129.16;6177992;23;46404;-88
2022/04/28 07:37:03;;;;;;;;;28.50;28.50;;;;;16.26;97.28;102141.28;6183331;23;45319;-88
2022/04/28 07:39:28;;;;;;;;;24.75;21.25;;;;;16.40;97.12;102140.97;6189339;23;45612;-87
2022/04/28 07:41:54;;;;;;;;;29.25;23.50;;;;;16.53;96.67;102143.34;6186494;22;45304;-88
2022/04/28 07:44:19;;;;;;;;;32.50;29.25;;;;;16.66;96.58;102148.25;6173606;22;45355;-88
2022/04/28 07:46:44;;;;;;;;;26.75;26.00;;;;;16.81;96.86;102146.25;6173023;23;45423;-88
2022/04/28 07:49:10;;;;;;;;;29.75;27.50;;;;;16.97;96.32;102147.81;6276762;22;53534;-88
2022/04/28 07:51:35;;;;;;;;;35.50;27.50;;;;;17.17;96.10;102161.00;6172966;23;45439;-88
2022/04/28 07:54:03;;;;;;;;;29.50;24.00;;;;;17.30;95.77;102164.16;6274965;22;48071;-89
2022/04/28 07:56:29;;;;;;;;;28.00;24.75;;;;;17.37;95.32;102170.63;6172418;23;45298;-88
2022/04/28 07:58:54;;;;;;;;;28.00;25.25;;;;;17.39;94.75;102172.50;6174220;23;45431;-88
2022/04/28 08:01:19;;;;;;;;;32.75;27.25;;;;;17.40;94.64;102171.63;6173360;23;45879;-89
2022/04/28 08:03:45;;;;;;;;;30.75;29.75;;;;;17.40;94.20;102176.03;6173814;23;45316;-89
2022/04/28 08:06:13;;;;;;;;;27.00;23.75;;;;;17.45;94.26;102177.13;6276244;22;45362;-88
2022/04/28 08:08:39;;;;;;;;;38.00;29.75;;;;;17.52;94.05;102183.59;6171545;22;45371;-88
2022/04/28 08:11:05;;;;;;;;;26.50;23.00;;;;;17.58;93.53;102174.94;6173441;23;45257;-88
2022/04/28 08:13:30;;;;;;;;;30.25;25.25;;;;;17.62;93.59;102179.53;6173318;22;45971;-89
2022/04/28 08:15:57;;;;;;;;;29.00;26.50;;;;;17.69;93.76;102178.03;6173189;22;45344;-89
2022/04/28 08:18:23;;;;;;;;;26.50;25.50;;;;;17.76;93.82;102178.31;6277904;22;45383;-88
2022/04/28 08:20:48;;;;;;;;;25.50;25.00;;;;;17.87;93.30;102184.06;6279689;22;45313;-88
2022/04/28 08:23:13;;;;;;;;;30.00;26.75;;;;;18.03;93.78;102189.94;6174242;23;45363;-88
2022/04/28 08:25:39;;;;;;;;;27.00;21.75;;;;;18.21;93.12;102194.16;6278457;22;51643;-88
2022/04/28 08:28:04;;;;;;;;;28.00;25.25;;;;;18.38;93.38;102192.13;6172690;23;45337;-89
2022/04/28 08:30:30;;;;;;;;;26.75;23.50;;;;;18.50;93.04;102201.41;6174202;23;45796;-90
2022/04/28 08:32:55;;;;;;;;;27.75;23.00;;;;;18.60;92.17;102202.63;6144857;23;51640;-89
2022/04/28 08:35:21;;;;;;;;;22.50;21.50;;;;;18.68;92.47;102206.47;6171901;23;45329;-88
2022/04/28 08:37:46;;;;;;;;;27.25;24.50;;;;;18.79;92.41;102201.50;6146491;23;45387;-88
2022/04/28 08:40:12;;;;;;;;;28.75;26.00;;;;;18.93;92.31;102204.63;6172864;23;45432;-89
2022/04/28 08:42:40;;;;;;;;;29.50;24.50;;;;;19.10;92.28;102212.28;6143648;23;47312;-88
2022/04/28 08:45:05;;;;;;;;;27.75;24.25;;;;;19.26;91.18;102212.81;6142680;23;45990;-88
2022/04/28 08:47:32;;;;;;;;;30.50;26.00;;;;;19.41;90.84;102218.63;6145999;23;45548;-89
2022/04/28 08:49:57;;;;;;;;;30.50;23.00;;;;;19.53;90.76;102209.25;6173004;23;45451;-89
2022/04/28 08:52:25;;;;;;;;;26.50;21.50;;;;;19.72;90.59;102212.47;6181946;23;45337;-88
2022/04/28 08:54:54;;;;;;;;;28.50;24.50;;;;;19.79;90.30;102213.56;6171819;23;45381;-90
2022/04/28 08:57:24;;;;;;;;;27.25;25.25;;;;;19.83;89.79;102212.78;6171664;23;45361;-87
2022/04/28 08:59:51;;;;;;;;;27.25;24.75;;;;;19.85;90.12;102211.97;6145184;23;45553;-90
2022/04/28 09:02:27;;;;;;;;;27.50;24.50;;;;;19.98;90.24;102210.59;6144507;23;47117;-89
2022/04/28 09:05:08;;;;;;;;;26.50;21.75;;;;;20.14;89.95;102205.75;6171066;23;45246;-90
2022/04/28 09:07:38;;;;;;;;;23.75;22.50;;;;;20.22;89.28;102208.63;6170124;23;45384;-88
2022/04/28 09:10:30;;;;;;;;;24.25;21.50;;;;;20.28;88.63;102208.78;6168104;23;45664;-89
2022/04/28 09:12:55;;;;;;;;;21.75;21.75;;;;;20.34;88.58;102209.81;6170837;23;45732;-90
2022/04/28 09:15:22;;;;;;;;;26.25;24.00;;;;;20.48;89.22;102199.56;6143905;22;45333;-88
2022/04/28 09:17:47;;;;;;;;;27.00;24.25;;;;;20.66;88.60;102209.81;6170653;23;45444;-89
2022/04/28 09:20:16;;;;;;;;;23.25;21.75;;;;;20.76;88.13;102209.19;6171517;23;45323;-90
2022/04/28 09:22:42;;;;;;;;;26.00;22.25;;;;;20.81;87.71;102203.06;6142936;23;47752;-89
2022/04/28 09:25:09;;;;;;;;;21.33;17.33;;;;;20.87;87.47;102209.44;6143285;23;45751;-90
2022/04/28 09:27:34;;;;;;;;;22.25;20.75;;;;;20.85;86.60;102205.84;6166134;23;45344;-89
2022/04/28 09:30:01;;;;;;;;;23.75;20.00;;;;;20.85;86.75;102205.84;6142677;22;45632;-88
2022/04/28 09:32:27;;;;;;;;;21.67;21.00;;;;;20.87;86.92;102211.25;6142942;23;48485;-88
2022/04/28 09:34:53;;;;;;;;;20.00;16.67;;;;;20.99;87.20;102206.22;6142994;22;45886;-89
2022/04/28 09:37:25;;;;;;;;;20.67;20.67;;;;;21.24;87.32;102210.38;6143325;23;45335;-90
2022/04/28 09:42:41;;;;;;;;;21.33;17.33;;;;;21.63;85.78;102203.25;6171109;23;45762;-91
2022/04/28 09:45:09;;;;;;;;;19.67;18.67;;;;;21.75;85.40;102205.31;6170158;23;45402;-91
2022/04/28 09:47:36;;;;;;;;;22.00;20.50;;;;;21.87;84.77;102210.06;6171713;23;45407;-90
2022/04/28 09:50:12;;;;;;;;;20.00;18.67;;;;;22.06;84.88;102214.00;6144673;23;45287;-89
2022/04/28 09:52:38;;;;;;;;;18.67;16.00;;;;;22.27;84.37;102211.72;6142880;22;46813;-89
2022/04/28 09:55:03;;;;;;;;;21.00;19.33;;;;;22.44;84.45;102196.94;6169526;23;45301;-90
2022/04/28 09:57:29;;;;;;;;;22.00;17.33;;;;;22.70;84.38;102210.78;6142842;23;45463;-90
2022/04/28 09:59:56;;;;;;;;;22.67;19.00;;;;;22.97;83.73;102204.09;6143626;23;45548;-89
2022/04/28 10:02:26;;;;;;;;;25.67;19.00;;;;;23.24;83.83;102213.47;6144173;23;46869;-88
2022/04/28 10:04:55;;;;;;;;;15.33;14.33;;;;;23.56;83.25;102206.81;6145128;23;45305;-91
2022/04/28 10:07:22;;;;;;;;;18.33;13.67;;;;;23.87;82.65;102215.25;6171301;23;45475;-90
2022/04/28 10:09:52;;;;;;;;;18.67;17.33;;;;;24.10;81.48;102217.34;6170250;23;45657;-90
2022/04/28 10:12:21;;;;;;;;;15.67;14.67;;;;;24.15;80.17;102213.78;6172351;23;47372;-93
2022/04/28 10:14:49;;;;;;;;;20.67;19.00;;;;;24.20;79.46;102218.34;6171675;23;45358;-91
2022/04/28 10:17:19;;;;;;;;;20.00;17.33;;;;;24.31;79.55;102210.44;6145762;23;45783;-94
2022/04/28 10:19:50;;;;;;;;;14.67;13.33;;;;;24.51;79.49;102211.53;6146353;23;45404;-93
2022/04/28 10:22:22;;;;;;;;;23.33;20.00;;;;;24.62;79.65;102217.00;6169393;23;46292;-94
2022/04/28 10:33:10;;;;;;;;;17.00;14.67;;;;;25.18;78.10;102197.81;6171263;23;45701;-92
2022/04/28 10:35:40;;;;;;;;;8.67;7.33;;;;;25.48;76.76;102204.28;6143403;23;45638;-91
2022/04/28 10:38:21;;;;;;;;;10.00;9.67;;;;;26.02;76.28;102193.78;6145602;22;45258;-94
2022/04/28 10:40:59;;;;;;;;;10.67;10.33;;;;;26.76;75.13;102211.00;6145761;23;45409;-95
2022/04/28 10:43:33;;;;;;;;;10.67;9.67;;;;;27.14;74.62;102225.38;6146614;23;47197;-93
2022/04/28 10:46:01;;;;;;;;;10.00;10.00;;;;;27.28;72.07;102219.09;6170378;23;45567;-90
2022/04/28 10:48:35;;;;;;;;;11.00;10.00;;;;;27.24;70.21;102214.63;6144430;23;45611;-95
2022/04/28 10:51:10;;;;;;;;;10.33;10.33;;;;;27.20;69.76;102206.53;6147840;23;45443;-94
2022/04/28 10:53:56;;;;;;;;;12.67;9.33;;;;;27.29;69.38;102207.41;6172442;23;45499;-92
2022/04/28 10:56:25;;;;;;;;;12.33;12.00;;;;;27.90;69.42;102223.44;6144972;23;45300;-91
2022/04/28 10:58:55;;;;;;;;;11.67;11.67;;;;;28.97;68.82;102209.22;6163076;23;45718;-93
2022/04/28 11:01:29;;;;;;;;;13.33;11.00;;;;;29.78;67.84;102215.66;6146032;23;45235;-94
2022/04/28 11:04:00;;;;;;;;;10.67;9.33;;;;;30.32;67.88;102211.34;6145905;23;48206;-94
2022/04/28 11:06:37;;;;;;;;;11.67;10.00;;;;;31.36;66.76;102217.72;6173163;23;45572;-94
2022/04/28 11:09:04;;;;;;;;;8.33;8.33;;;;;33.02;65.86;102207.69;6146949;22;45406;-93
2022/04/28 11:11:47;;;;;;;;;7.00;7.00;;;;;34.49;63.19;102213.38;6175058;23;45214;-91
2022/04/28 11:14:13;;;;;;;;;8.00;8.00;;;;;35.51;61.94;102222.63;6166459;23;48247;-91
2022/04/28 11:16:41;;;;;;;;;8.67;8.67;;;;;36.08;60.00;102222.25;6174132;22;44840;-92
2022/04/28 11:19:08;;;;;;;;;9.67;9.00;;;;;36.04;56.84;102225.19;6169994;23;45535;-93
2022/04/28 11:21:34;;;;;;;;;8.33;8.33;;;;;35.44;55.56;102227.41;6161807;23;45538;-93
2022/04/28 11:23:59;;;;;;;;;8.67;8.67;;;;;34.48;54.70;102225.25;6171872;23;46378;-93
2022/04/28 11:26:27;;;;;;;;;9.67;9.67;;;;;33.58;54.91;102240.63;6173523;23;45316;-92
2022/04/28 11:28:52;;;;;;;;;7.00;5.33;;;;;32.70;54.35;102226.63;6232027;22;45262;-92
2022/04/28 11:31:19;;;;;;;;;7.33;7.33;;;;;31.86;54.33;102243.88;6298504;22;45495;-90
2022/04/28 11:33:49;;;;;;;;;7.33;7.33;;;;;31.10;54.71;102235.38;6296914;22;47928;-92
2022/04/28 11:36:24;;;;;;;;;6.67;6.67;;;;;30.59;54.03;102242.53;6294824;22;45324;-89
2022/04/28 11:39:03;;;;;;;;;6.33;6.00;;;;;30.22;54.33;102231.31;6299366;22;45330;-93
2022/04/28 11:41:32;;;;;;;;;8.00;6.33;;;;;30.06;55.01;102234.22;6300787;22;45427;-93
2022/04/28 11:44:05;;;;;;;;;8.00;7.00;;;;;30.17;54.83;102231.38;6300639;22;46170;-95
2022/04/28 11:46:30;;;;;;;;;7.67;7.67;;;;;30.25;55.27;102236.69;6303497;22;45279;-93
2022/04/28 11:48:56;;;;;;;;;9.00;9.00;;;;;30.27;54.96;102234.84;6303153;22;45366;-92
2022/04/28 11:51:24;;;;;;;;;9.67;7.67;;;;;30.51;55.08;102239.94;6300108;22;45501;-93
2022/04/28 11:53:50;;;;;;;;;7.00;6.33;;;;;31.40;55.71;102237.53;6299035;22;46943;-94
2022/04/28 11:56:16;;;;;;;;;8.67;7.33;;;;;33.17;56.48;102230.84;6303684;22;45535;-96
2022/04/28 11:58:42;;;;;;;;;7.33;7.00;;;;;34.76;54.30;102235.22;6304694;22;45304;-96
2022/04/28 12:01:11;;;;;;;;;7.00;7.00;;;;;34.84;53.37;102232.25;6286367;22;45446;-96
2022/04/28 12:03:36;;;;;;;;;5.67;5.67;;;;;34.51;52.63;102233.28;6313470;22;46110;-94
2022/04/28 12:06:04;;;;;;;;;7.33;6.33;;;;;34.56;52.37;102238.59;6302521;22;45457;-96
2022/04/28 12:08:30;;;;;;;;;6.33;6.33;;;;;34.42;51.44;102228.16;6298285;22;45302;-96
2022/04/28 12:19:20;;;;;;;;;9.00;8.33;;;;;32.70;51.52;102237.50;6304556;22;45291;-96
2022/04/28 12:21:46;;;;;;;;;6.33;6.33;;;;;32.67;51.06;102234.88;6304025;22;45241;-96
2022/04/28 12:24:15;;;;;;;;;8.67;8.67;;;;;32.58;51.19;102222.34;6302707;22;48237;-96
2022/04/28 12:26:42;;;;;;;;;7.67;5.67;;;;;32.32;51.71;102230.22;6304439;22;45105;-96
2022/04/28 12:29:13;;;;;;;;;9.00;8.00;;;;;32.08;50.85;102246.13;6301881;22;45439;-95
2022/04/28 12:31:39;;;;;;;;;9.67;7.00;;;;;31.65;50.94;102239.78;6301604;22;45360;-96
2022/04/28 12:34:20;;;;;;;;;8.33;6.33;;;;;31.15;50.77;102241.63;6303740;22;46490;-94
2022/04/28 12:36:48;;;;;;;;;8.00;7.00;;;;;30.79;50.26;102236.78;6303351;22;45243;-96
2022/04/28 12:39:16;;;;;;;;;7.00;7.00;;;;;30.53;50.73;102235.41;6302598;22;45325;-96
2022/04/28 12:41:43;;;;;;;;;7.33;6.00;;;;;30.42;51.49;102224.72;6302269;22;45360;-96
2022/04/28 12:44:09;;;;;;;;;9.00;7.67;;;;;30.44;51.65;102222.88;6303870;22;47216;-96
2022/04/28 12:46:39;;;;;;;;;7.67;7.67;;;;;30.60;51.75;102217.22;6307514;22;45257;-96
2022/04/28 12:49:07;;;;;;;;;5.33;5.33;;;;;30.67;51.35;102222.50;6298448;22;45252;-96
2022/04/28 12:51:52;;;;;;;;;7.33;7.33;;;;;30.78;51.95;102224.16;6299646;22;45223;-96
2022/04/28 12:54:35;;;;;;;;;6.00;6.00;;;;;30.98;52.22;102220.22;6302704;22;46798;-96
2022/04/28 12:57:05;;;;;;;;;7.33;7.33;;;;;31.18;52.41;102222.56;6301983;22;45256;-96
2022/04/28 12:59:32;;;;;;;;;8.00;7.00;;;;;31.18;51.95;102221.69;6301610;22;45269;-96
2022/04/28 13:01:58;;;;;;;;;3.67;3.67;;;;;31.11;52.07;102231.72;6300425;22;45498;-96
2022/04/28 13:04:26;;;;;;;;;8.00;7.00;;;;;31.02;51.99;102234.63;6300135;22;46183;-96
2022/04/28 13:06:52;;;;;;;;;8.67;7.67;;;;;30.88;52.02;102230.31;6300696;22;45714;-96